createdAt,value
2018-12-29T00:00:52.169Z,7.90
2018-12-29T00:03:21.068Z,11.30
2018-12-29T00:05:50.253Z,7.42
2018-12-29T00:08:19.181Z,6.67
2018-12-29T00:10:48.261Z,11.55
2018-12-29T00:13:17.328Z,7.53
2018-12-29T00:15:46.217Z,8.23
2018-12-29T00:18:15.242Z,7.42
2018-12-29T00:20:44.199Z,11.65
2018-12-29T00:23:13.065Z,7.83
2018-12-29T00:25:42.082Z,8.30
2018-12-29T00:28:11.002Z,7.95
2018-12-29T00:30:40.028Z,8.05
2018-12-29T00:33:09.272Z,9.85
2018-12-29T00:35:38.229Z,8.33
2018-12-29T00:38:07.136Z,8.30
2018-12-29T00:40:36.141Z,8.08
2018-12-29T00:43:05.151Z,9.35
2018-12-29T00:45:35.425Z,10.40
2018-12-29T00:48:04.385Z,10.25
2018-12-29T00:50:33.377Z,14.58
2018-12-29T00:53:02.633Z,10.20
2018-12-29T00:55:31.590Z,7.20
2018-12-29T00:58:00.494Z,7.35
2018-12-29T01:00:29.657Z,6.62
2018-12-29T01:02:58.925Z,6.15
2018-12-29T01:05:27.956Z,5.97
2018-12-29T01:07:56.898Z,6.20
2018-12-29T01:10:26.192Z,6.65
2018-12-29T01:12:55.078Z,7.25
2018-12-29T01:15:24.010Z,6.37
2018-12-29T01:17:52.916Z,6.70
2018-12-29T01:20:21.816Z,7.15
2018-12-29T01:22:50.689Z,7.83
2018-12-29T01:25:19.714Z,7.20
2018-12-29T01:27:48.590Z,8.00
2018-12-29T01:30:17.467Z,8.43
2018-12-29T01:32:46.557Z,8.05
2018-12-29T01:35:15.749Z,7.70
2018-12-29T01:37:44.953Z,7.95
2018-12-29T01:40:13.960Z,8.35
2018-12-29T01:42:42.861Z,7.97
2018-12-29T01:45:17.416Z,8.40
2018-12-29T01:47:42.562Z,9.23
2018-12-29T01:50:11.440Z,7.33
2018-12-29T01:52:40.476Z,9.15
2018-12-29T01:55:11.901Z,9.20
2018-12-29T01:57:40.854Z,12.00
2018-12-29T02:00:09.945Z,11.53
2018-12-29T02:02:38.818Z,11.65
2018-12-29T02:05:09.533Z,13.15
2018-12-29T02:07:38.412Z,10.23
2018-12-29T02:10:07.401Z,7.70
2018-12-29T02:12:36.351Z,7.15
2018-12-29T02:15:06.401Z,7.28
2018-12-29T02:17:35.716Z,6.92
2018-12-29T02:20:05.186Z,7.22
2018-12-29T02:22:34.051Z,8.60
2018-12-29T02:25:02.916Z,8.50
2018-12-29T02:27:31.777Z,11.63
2018-12-29T02:30:00.779Z,12.25
2018-12-29T02:32:29.670Z,13.78
2018-12-29T02:34:59.532Z,12.95
2018-12-29T02:37:28.459Z,13.50
2018-12-29T02:39:58.874Z,13.30
2018-12-29T02:42:27.812Z,14.05
2018-12-29T02:44:58.514Z,13.15
2018-12-29T02:47:57.430Z,13.93
2018-12-29T02:51:01.824Z,14.87
2018-12-29T02:53:32.498Z,14.18
2018-12-29T02:56:02.185Z,15.63
2018-12-29T02:58:31.230Z,16.50
2018-12-29T03:01:17.315Z,17.48
2018-12-29T03:06:56.236Z,18.40
2018-12-29T03:09:26.091Z,18.45
2018-12-29T03:12:03.614Z,19.75
2018-12-29T03:14:36.033Z,19.10
2018-12-29T03:17:06.579Z,19.85
2018-12-29T03:19:58.151Z,20.17
2018-12-29T03:22:27.267Z,18.67
2018-12-29T03:24:56.637Z,20.90
2018-12-29T03:27:26.453Z,19.57
2018-12-29T03:29:58.671Z,21.50
2018-12-29T03:32:50.131Z,20.17
2018-12-29T03:42:06.301Z,19.82
2018-12-29T03:44:35.775Z,19.77
2018-12-29T03:47:05.414Z,19.65
2018-12-29T03:49:40.070Z,19.25
2018-12-29T03:52:09.179Z,19.10
2018-12-29T03:54:38.421Z,18.32
2018-12-29T03:57:08.685Z,17.32
2018-12-29T03:59:37.710Z,17.00
2018-12-29T04:02:06.970Z,19.02
2018-12-29T04:04:36.029Z,17.57
2018-12-29T04:07:05.010Z,18.65
2018-12-29T04:09:34.971Z,18.30
2018-12-29T04:12:06.946Z,18.73
2018-12-29T04:14:37.718Z,18.20
2018-12-29T04:17:06.945Z,18.35
2018-12-29T04:19:36.821Z,16.87
2018-12-29T04:22:05.784Z,17.25
2018-12-29T04:24:34.670Z,16.52
2018-12-29T04:27:03.565Z,17.20
2018-12-29T04:29:32.554Z,15.78
2018-12-29T04:32:10.732Z,16.70
2018-12-29T04:34:40.000Z,18.10
2018-12-29T05:28:00.778Z,16.23
2018-12-29T05:30:30.527Z,17.32
2018-12-29T05:33:00.328Z,18.05
2018-12-29T05:35:30.662Z,18.52
2018-12-29T05:38:01.768Z,18.37
2018-12-29T08:33:27.071Z,22.73
2018-12-29T08:36:00.222Z,21.52
2018-12-29T08:43:40.316Z,19.62
2018-12-29T08:46:15.909Z,20.77
2018-12-29T08:48:46.609Z,19.67
2018-12-29T08:51:16.297Z,18.77
2018-12-29T08:53:55.420Z,18.25
2018-12-29T08:56:25.245Z,18.95
2018-12-29T08:59:14.422Z,18.27
2018-12-29T09:01:46.388Z,19.50
2018-12-29T09:04:27.600Z,19.70
2018-12-29T09:06:57.745Z,19.77
2018-12-29T09:09:32.270Z,18.40
2018-12-29T09:12:01.826Z,17.42
2018-12-29T09:14:35.057Z,17.35
2018-12-29T09:26:46.425Z,15.88
2018-12-29T09:29:15.400Z,15.37
2018-12-29T09:31:45.423Z,15.90
2018-12-29T09:34:14.521Z,15.97
2018-12-29T09:36:45.338Z,17.07
2018-12-29T09:39:18.350Z,17.10
2018-12-29T09:41:47.229Z,17.20
2018-12-29T09:44:16.429Z,16.47
2018-12-29T09:46:46.746Z,16.67
2018-12-29T09:49:16.874Z,15.80
2018-12-29T09:51:45.799Z,16.07
2018-12-29T10:01:43.197Z,17.37
2018-12-29T10:04:13.051Z,16.30
2018-12-29T10:06:42.030Z,16.53
2018-12-29T10:09:11.035Z,15.97
2018-12-29T10:11:39.944Z,15.97
2018-12-29T10:14:08.869Z,15.97
2018-12-29T10:16:37.867Z,15.53
2018-12-29T10:19:06.937Z,17.70
2018-12-29T10:21:35.926Z,15.43
2018-12-29T10:24:04.909Z,16.57
2018-12-29T10:26:34.609Z,15.87
2018-12-29T10:29:04.982Z,15.17
2018-12-29T10:31:43.663Z,15.30
2018-12-29T10:34:12.701Z,16.67
2018-12-29T10:36:41.678Z,15.37
2018-12-29T10:39:10.660Z,14.90
2018-12-29T10:41:40.436Z,15.87
2018-12-29T10:44:09.345Z,15.17
2018-12-29T10:46:38.723Z,15.07
2018-12-29T10:49:07.835Z,16.27
2018-12-29T10:51:38.139Z,16.10
2018-12-29T10:54:10.234Z,15.97
2018-12-29T10:56:39.228Z,15.87
2018-12-29T10:59:08.303Z,15.43
2018-12-29T11:01:37.370Z,15.90
2018-12-29T11:04:06.525Z,15.53
2018-12-29T11:06:35.478Z,15.50
2018-12-29T11:09:06.685Z,14.93
2018-12-29T11:11:35.693Z,16.17
2018-12-29T11:14:04.762Z,15.37
2018-12-29T11:16:38.809Z,15.40
2018-12-29T11:19:10.454Z,16.10
2018-12-29T11:21:39.352Z,16.13
2018-12-29T11:24:08.413Z,14.00
2018-12-29T11:26:37.345Z,15.00
2018-12-29T11:29:06.190Z,15.80
2018-12-29T11:31:35.153Z,15.60
2018-12-29T11:34:05.891Z,14.33
2018-12-29T11:36:34.752Z,13.37
2018-12-29T11:39:04.502Z,15.03
2018-12-29T11:41:33.501Z,14.70
2018-12-29T11:44:06.321Z,17.48
2018-12-29T11:46:35.229Z,14.87
2018-12-29T11:49:05.109Z,13.57
2018-12-29T11:51:34.221Z,13.87
2018-12-29T11:54:04.934Z,14.50
2018-12-29T11:56:35.051Z,14.00
2018-12-29T11:59:03.979Z,13.93
2018-12-29T12:01:32.949Z,12.77
2018-12-29T12:04:02.720Z,13.17
2018-12-29T12:06:31.657Z,14.57
2018-12-29T12:09:00.710Z,13.00
2018-12-29T12:11:31.897Z,13.67
2018-12-29T12:14:05.413Z,12.37
2018-12-29T12:16:34.618Z,12.17
2018-12-29T12:19:03.655Z,12.77
2018-12-29T12:21:32.875Z,13.90
2018-12-29T12:24:02.339Z,12.63
2018-12-29T12:26:31.874Z,12.47
2018-12-29T12:29:01.661Z,12.00
2018-12-29T12:31:31.086Z,11.87
2018-12-29T12:34:00.279Z,11.80
2018-12-29T12:36:29.798Z,12.90
2018-12-29T12:38:59.944Z,12.43
2018-12-29T12:41:29.399Z,13.83
2018-12-29T12:43:58.867Z,13.93
2018-12-29T12:46:28.181Z,12.80
2018-12-29T12:48:57.532Z,13.13
2018-12-29T12:51:26.400Z,14.10
2018-12-29T12:53:55.438Z,14.47
2018-12-29T12:56:24.410Z,15.77
2018-12-29T12:58:53.405Z,15.20
2018-12-29T13:01:25.109Z,14.00
2018-12-29T13:03:54.029Z,15.33
2018-12-29T13:06:22.940Z,15.40
2018-12-29T13:08:53.377Z,16.10
2018-12-29T13:11:22.307Z,15.57
2018-12-29T13:13:51.517Z,15.20
2018-12-29T13:16:20.437Z,15.67
2018-12-29T13:18:49.392Z,15.80
2018-12-29T13:21:18.357Z,14.97
2018-12-29T13:23:47.261Z,14.50
2018-12-29T13:26:16.206Z,15.70
2018-12-29T13:28:45.180Z,14.50
2018-12-29T13:31:14.221Z,14.03
2018-12-29T13:33:44.189Z,14.07
2018-12-29T13:36:13.449Z,14.53
2018-12-29T13:38:42.472Z,14.97
2018-12-29T13:41:14.143Z,14.37
2018-12-29T13:43:44.519Z,15.80
2018-12-29T13:46:13.577Z,15.30
2018-12-29T13:48:42.885Z,15.97
2018-12-29T13:51:11.763Z,16.53
2018-12-29T13:53:40.646Z,15.57
2018-12-29T13:56:09.642Z,16.10
2018-12-29T13:58:38.619Z,15.60
2018-12-29T14:01:07.589Z,15.10
2018-12-29T14:03:36.844Z,15.03
2018-12-29T14:06:05.806Z,16.40
2018-12-29T14:08:35.039Z,14.97
2018-12-29T14:11:04.461Z,15.93
2018-12-29T14:13:33.512Z,16.43
2018-12-29T14:16:02.532Z,14.90
2018-12-29T14:18:33.863Z,15.00
2018-12-29T14:21:02.825Z,15.67
2018-12-29T14:23:34.104Z,15.13
2018-12-29T14:26:04.547Z,15.40
2018-12-29T14:28:33.617Z,17.33
2018-12-29T14:31:03.373Z,17.63
2018-12-29T14:33:32.742Z,15.10
2018-12-29T14:36:01.644Z,19.60
2018-12-29T14:38:30.617Z,20.97
2018-12-29T14:40:59.537Z,18.23
2018-12-29T14:43:28.549Z,18.23
2018-12-29T14:46:08.047Z,14.73
2018-12-29T14:48:39.869Z,16.32
2018-12-29T14:51:11.934Z,15.17
2018-12-29T14:53:40.898Z,15.30
2018-12-29T14:56:13.956Z,15.17
2018-12-29T14:58:43.040Z,14.67
2018-12-29T15:01:12.428Z,14.90
2018-12-29T15:03:41.476Z,15.27
2018-12-29T15:06:23.943Z,15.67
2018-12-29T15:09:00.905Z,15.43
2018-12-29T15:11:29.836Z,15.40
2018-12-29T15:13:59.461Z,15.87
2018-12-29T15:16:28.398Z,15.47
2018-12-29T15:19:18.529Z,14.90
2018-12-29T15:22:06.947Z,17.70
2018-12-29T15:24:45.669Z,14.67
2018-12-29T15:27:19.396Z,15.13
2018-12-29T15:29:48.380Z,16.73
2018-12-29T15:32:17.743Z,18.30
2018-12-29T15:34:46.766Z,21.90
2018-12-29T15:37:15.756Z,15.87
2018-12-29T15:39:44.680Z,16.03
2018-12-29T15:42:15.621Z,17.27
2018-12-29T15:44:44.825Z,14.60
2018-12-29T15:47:13.792Z,15.03
2018-12-29T15:49:42.726Z,13.80
2018-12-29T15:52:12.300Z,13.88
2018-12-29T15:54:41.655Z,15.17
2018-12-29T15:57:12.800Z,15.07
2018-12-29T15:59:42.165Z,14.53
2018-12-29T16:02:11.496Z,14.97
2018-12-29T16:04:44.466Z,13.83
2018-12-29T16:07:14.486Z,14.40
2018-12-29T16:09:44.173Z,15.17
2018-12-29T16:12:13.761Z,15.10
2018-12-29T16:14:43.994Z,15.87
2018-12-29T16:17:14.690Z,16.52
2018-12-29T16:19:44.597Z,17.55
2018-12-29T16:22:15.252Z,16.17
2018-12-29T16:24:46.903Z,18.83
2018-12-29T16:27:16.263Z,15.97
2018-12-29T16:29:45.329Z,14.83
2018-12-29T16:32:14.445Z,17.30
2018-12-29T16:34:43.957Z,18.20
2018-12-29T16:37:13.165Z,14.87
2018-12-29T16:39:42.968Z,13.77
2018-12-29T16:42:11.933Z,14.40
2018-12-29T16:44:57.748Z,14.30
2018-12-29T16:47:26.809Z,14.90
2018-12-29T16:49:55.914Z,14.83
2018-12-29T16:52:25.058Z,15.23
2018-12-29T16:54:54.033Z,14.90
2018-12-29T16:57:22.988Z,16.77
2018-12-29T16:59:52.892Z,14.70
2018-12-29T17:02:22.292Z,13.63
2018-12-29T17:04:52.785Z,15.03
2018-12-29T17:07:50.953Z,14.47
2018-12-29T17:10:25.598Z,14.23
2018-12-29T17:13:00.238Z,14.27
2018-12-29T17:15:29.737Z,14.10
2018-12-29T17:18:08.015Z,14.47
2018-12-29T17:20:36.982Z,13.67
2018-12-29T17:23:06.861Z,14.05
2018-12-29T17:25:37.343Z,14.50
2018-12-29T17:28:16.888Z,13.83
2018-12-29T17:31:01.723Z,13.07
2018-12-29T17:33:31.937Z,14.53
2018-12-29T17:39:27.721Z,13.05
2018-12-29T17:41:56.747Z,14.80
2018-12-29T17:47:33.310Z,14.07
2018-12-29T17:50:02.897Z,14.98
2018-12-29T17:52:33.006Z,14.70
2018-12-29T17:55:04.169Z,14.07
2018-12-29T17:57:33.296Z,14.35
2018-12-29T18:00:03.597Z,14.70
2018-12-29T18:02:34.694Z,14.97
2018-12-29T18:05:04.715Z,14.70
2018-12-29T18:07:33.863Z,17.00
2018-12-29T18:10:05.868Z,17.30
2018-12-29T18:12:37.186Z,16.43
2018-12-29T18:15:06.513Z,20.12
2018-12-29T18:17:37.462Z,17.80
2018-12-29T18:20:06.620Z,27.13
2018-12-29T18:22:35.559Z,20.62
2018-12-29T18:25:05.379Z,14.20
2018-12-29T18:27:34.469Z,15.47
2018-12-29T18:30:03.596Z,14.93
2018-12-29T18:32:32.609Z,14.57
2018-12-29T18:35:01.613Z,15.58
2018-12-29T18:37:30.600Z,14.73
2018-12-29T18:40:00.160Z,16.87
2018-12-29T18:42:29.121Z,14.40
2018-12-29T18:44:58.092Z,15.97
2018-12-29T18:47:28.122Z,14.83
2018-12-29T18:49:57.349Z,15.88
2018-12-29T18:52:26.642Z,15.60
2018-12-29T18:54:55.639Z,15.67
2018-12-29T18:57:28.162Z,16.17
2018-12-29T18:59:57.158Z,14.90
2018-12-29T19:02:26.170Z,16.00
2018-12-29T19:04:55.142Z,15.80
2018-12-29T19:07:24.405Z,19.02
2018-12-29T19:09:53.320Z,17.45
2018-12-29T19:12:27.481Z,16.85
2018-12-29T19:14:58.041Z,17.20
2018-12-29T19:17:31.460Z,17.85
2018-12-29T19:20:02.644Z,16.90
2018-12-29T19:22:37.466Z,16.42
2018-12-29T19:25:09.417Z,17.17
2018-12-29T19:27:41.799Z,15.43
2018-12-29T19:30:10.859Z,14.73
2018-12-29T19:32:40.385Z,14.38
2018-12-29T19:35:13.910Z,14.43
2018-12-29T19:37:58.995Z,13.48
2018-12-29T19:40:30.006Z,13.68
2018-12-29T19:43:02.701Z,13.28
2018-12-29T19:45:31.859Z,13.70
2018-12-29T19:48:01.122Z,13.72
2018-12-29T19:50:33.839Z,14.90
2018-12-29T19:53:02.819Z,15.40
2018-12-29T19:55:31.773Z,15.85
2018-12-29T19:58:00.852Z,13.93
2018-12-29T20:00:30.192Z,13.62
2018-12-29T20:02:59.114Z,14.07
2018-12-29T20:05:28.485Z,14.33
2018-12-29T20:07:57.578Z,15.03
2018-12-29T20:10:28.365Z,17.45
2018-12-29T20:13:00.054Z,18.75
2018-12-29T20:15:29.201Z,17.25
2018-12-29T20:17:58.182Z,20.37
2018-12-29T20:20:27.444Z,16.87
2018-12-29T20:22:56.391Z,18.82
2018-12-29T20:25:25.573Z,18.37
2018-12-29T20:27:54.648Z,18.73
2018-12-29T20:30:23.810Z,18.42
2018-12-29T20:32:58.896Z,18.90
2018-12-29T20:35:23.654Z,18.15
2018-12-29T20:37:55.774Z,19.02
2018-12-29T20:40:25.822Z,20.00
2018-12-29T20:42:57.966Z,20.40
2018-12-29T20:45:29.974Z,20.45
2018-12-29T20:47:59.120Z,21.25
2018-12-29T20:50:32.251Z,22.67
2018-12-29T20:57:06.179Z,22.80
2018-12-29T20:59:59.442Z,24.25
2018-12-29T21:02:39.249Z,23.40
2018-12-29T21:08:05.475Z,24.12
2018-12-29T21:10:35.671Z,24.12
2018-12-29T21:13:11.016Z,23.92
2018-12-29T21:15:41.442Z,23.92
2018-12-29T21:18:12.590Z,24.02
2018-12-29T21:20:55.851Z,23.47
2018-12-29T21:23:32.863Z,22.07
2018-12-29T21:26:01.886Z,23.15
2018-12-29T21:28:33.875Z,23.73
2018-12-29T21:31:03.698Z,24.30
2018-12-29T21:33:32.681Z,23.35
2018-12-29T21:36:01.669Z,23.02
2018-12-29T21:38:34.872Z,23.57
2018-12-29T21:41:05.444Z,22.63
2018-12-29T21:43:42.905Z,22.22
2018-12-29T21:46:12.530Z,25.08
2018-12-29T21:48:42.369Z,22.80
2018-12-29T21:51:17.454Z,23.67
2018-12-29T21:53:46.353Z,24.67
2018-12-29T21:56:17.227Z,24.20
2018-12-29T21:58:46.974Z,25.10
2018-12-29T22:01:16.231Z,23.05
2018-12-29T22:03:47.500Z,24.75
2018-12-29T22:06:16.769Z,24.83
2018-12-29T22:08:51.715Z,24.23
2018-12-29T22:11:28.000Z,25.10
2018-12-29T22:14:46.125Z,24.50
2018-12-29T22:20:56.896Z,23.57
2018-12-29T22:23:26.053Z,24.07
2018-12-29T22:26:20.031Z,25.00
2018-12-29T22:28:51.330Z,23.73
2018-12-29T22:31:25.558Z,25.77
2018-12-29T22:34:17.011Z,24.00
2018-12-29T22:36:46.369Z,22.25
2018-12-29T22:39:19.532Z,20.45
2018-12-29T22:41:54.782Z,21.60
2018-12-29T22:44:24.032Z,22.35
2018-12-29T22:46:54.408Z,22.03
2018-12-29T22:49:23.286Z,21.35
2018-12-29T22:51:52.336Z,21.40
2018-12-29T22:54:24.825Z,21.27
2018-12-29T22:56:56.553Z,21.45
2018-12-29T22:59:26.130Z,20.70
2018-12-29T23:01:55.292Z,21.17
2018-12-29T23:04:24.258Z,20.67
2018-12-29T23:06:53.402Z,22.73
2018-12-29T23:09:22.446Z,22.77
2018-12-29T23:11:53.511Z,21.30
2018-12-29T23:14:24.017Z,22.70
2018-12-29T23:16:53.102Z,22.07
2018-12-29T23:19:22.230Z,22.62
2018-12-29T23:21:51.291Z,22.87
2018-12-29T23:24:20.401Z,22.42
2018-12-29T23:26:49.463Z,22.35
2018-12-29T23:29:18.813Z,24.00
2018-12-29T23:31:47.875Z,24.10
2018-12-29T23:34:16.951Z,24.10
2018-12-29T23:36:45.980Z,23.73
2018-12-29T23:39:15.086Z,23.37
2018-12-29T23:41:44.485Z,21.97
2018-12-29T23:44:13.588Z,21.47
2018-12-29T23:46:42.550Z,23.57
2018-12-29T23:49:11.604Z,22.53
2018-12-29T23:51:41.402Z,22.23
2018-12-29T23:54:10.596Z,21.60
2018-12-29T23:56:39.901Z,20.17
2018-12-29T23:59:11.405Z,20.88
